Time;durP1;ratioP1;P1;durP2;ratioP2;P2;SDS_P1;SDS_P2;PMS_P1;PMS_P2;Temp;Humidity;BMP_temperature;BMP_pressure;BME280_temperature;BME280_humidity;BME280_pressure;Samples;Min_cycle;Max_cycle;Signal;HPM_P1;HPM_P2
2023/12/01 00:01:00;;;;;;;96.65;36.35;;;;;;;;;;4982446;28;20182;-79
2023/12/01 00:03:26;;;;;;;89.80;35.67;;;;;;;;;;4982608;28;20215;-79
2023/12/01 00:05:52;;;;;;;80.90;33.85;;;;;;;;;;4982253;28;20203;-78
2023/12/01 00:08:18;;;;;;;83.57;34.75;;;;;;;;;;4982586;28;20215;-79
2023/12/01 00:10:44;;;;;;;96.40;36.50;;;;;;;;;;4982007;28;20172;-79
2023/12/01 00:13:10;;;;;;;79.22;35.65;;;;;;;;;;4982701;28;20432;-79
2023/12/01 00:15:36;;;;;;;81.00;36.10;;;;;;;;;;4982663;28;20179;-79
2023/12/01 00:18:02;;;;;;;100.18;37.95;;;;;;;;;;4981621;28;20400;-78
2023/12/01 00:20:28;;;;;;;92.32;36.53;;;;;;;;;;4982061;28;20176;-78
2023/12/01 00:22:54;;;;;;;83.17;37.33;;;;;;;;;;4982008;28;20176;-79
2023/12/01 00:25:20;;;;;;;92.38;37.88;;;;;;;;;;4983045;28;20487;-78
2023/12/01 00:27:46;;;;;;;93.85;37.20;;;;;;;;;;4981633;28;20224;-79
2023/12/01 00:30:12;;;;;;;97.17;38.03;;;;;;;;;;4982257;28;20216;-79
2023/12/01 00:32:38;;;;;;;82.73;36.03;;;;;;;;;;4981600;28;20406;-80
2023/12/01 00:35:04;;;;;;;88.60;36.97;;;;;;;;;;4982326;28;20888;-79
2023/12/01 00:37:33;;;;;;;81.80;35.17;;;;;;;;;;4981204;28;20409;-79
2023/12/01 00:39:59;;;;;;;88.22;37.08;;;;;;;;;;4982421;28;20181;-79
2023/12/01 00:42:25;;;;;;;86.50;35.77;;;;;;;;;;4981699;28;20179;-78
2023/12/01 00:44:51;;;;;;;82.77;37.10;;;;;;;;;;4981949;28;20421;-79
2023/12/01 00:47:17;;;;;;;103.38;37.28;;;;;;;;;;4981186;28;20450;-79
2023/12/01 00:49:43;;;;;;;90.57;34.83;;;;;;;;;;4981061;28;20170;-79
2023/12/01 00:52:09;;;;;;;89.25;33.50;;;;;;;;;;4981579;28;20168;-78
2023/12/01 00:54:35;;;;;;;88.55;35.83;;;;;;;;;;4981924;28;20199;-79
2023/12/01 00:57:02;;;;;;;80.68;35.50;;;;;;;;;;4981572;28;20231;-78
2023/12/01 00:59:28;;;;;;;81.50;33.15;;;;;;;;;;4981792;28;20220;-78
2023/12/01 01:01:54;;;;;;;76.22;32.85;;;;;;;;;;4980832;28;20177;-78
2023/12/01 01:04:19;;;;;;;76.53;31.10;;;;;;;;;;4981454;28;20202;-79
2023/12/01 01:06:45;;;;;;;73.53;30.50;;;;;;;;;;4981452;28;20468;-79
2023/12/01 01:09:11;;;;;;;68.67;30.23;;;;;;;;;;4981617;28;20325;-79
2023/12/01 01:11:37;;;;;;;82.17;35.10;;;;;;;;;;4981327;28;20407;-79
2023/12/01 01:14:03;;;;;;;96.43;36.97;;;;;;;;;;4981162;28;20408;-79
2023/12/01 01:16:29;;;;;;;83.03;34.22;;;;;;;;;;4979361;28;20936;-79
2023/12/01 01:18:55;;;;;;;92.13;37.17;;;;;;;;;;4980857;28;20176;-79
2023/12/01 01:21:21;;;;;;;81.18;34.42;;;;;;;;;;4981895;28;20181;-79
2023/12/01 01:23:47;;;;;;;99.50;36.55;;;;;;;;;;4980865;28;20512;-79
2023/12/01 01:26:14;;;;;;;89.67;36.80;;;;;;;;;;4980368;28;20219;-79
2023/12/01 01:28:40;;;;;;;83.28;33.95;;;;;;;;;;4980977;28;20543;-79
2023/12/01 01:31:07;;;;;;;78.35;33.33;;;;;;;;;;4980843;28;20274;-79
2023/12/01 01:33:33;;;;;;;79.03;35.38;;;;;;;;;;4980588;28;20536;-79
2023/12/01 01:35:59;;;;;;;81.68;36.03;;;;;;;;;;4981254;28;20184;-79
2023/12/01 01:38:25;;;;;;;89.30;34.30;;;;;;;;;;4980920;28;20179;-79
2023/12/01 01:40:51;;;;;;;89.53;35.40;;;;;;;;;;4981279;28;20433;-79
2023/12/01 01:43:20;;;;;;;90.33;34.13;;;;;;;;;;4980759;28;20399;-79
2023/12/01 01:45:46;;;;;;;84.90;33.15;;;;;;;;;;4981119;28;20963;-79
2023/12/01 01:48:12;;;;;;;74.13;31.20;;;;;;;;;;4980826;28;20174;-79
2023/12/01 01:50:38;;;;;;;77.40;31.73;;;;;;;;;;4980556;28;20818;-79
2023/12/01 01:53:04;;;;;;;77.13;31.08;;;;;;;;;;4981099;28;20172;-79
2023/12/01 01:55:30;;;;;;;82.47;32.97;;;;;;;;;;4981129;28;20177;-79
2023/12/01 01:57:56;;;;;;;81.18;33.22;;;;;;;;;;4981331;28;20223;-78
2023/12/01 02:00:23;;;;;;;80.50;32.05;;;;;;;;;;4980491;28;20172;-79
2023/12/01 02:02:49;;;;;;;90.35;33.78;;;;;;;;;;4980532;28;20172;-79
2023/12/01 02:05:15;;;;;;;101.03;36.57;;;;;;;;;;4980501;28;20223;-79
2023/12/01 02:07:41;;;;;;;100.20;37.47;;;;;;;;;;4980933;28;20491;-79
2023/12/01 02:10:15;;;;;;;97.05;34.58;;;;;;;;;;4980509;28;20187;-79
2023/12/01 02:12:41;;;;;;;104.53;36.83;;;;;;;;;;4981069;28;20176;-79
2023/12/01 02:15:10;;;;;;;84.90;31.92;;;;;;;;;;4982063;28;20270;-79
2023/12/01 02:17:37;;;;;;;86.60;33.78;;;;;;;;;;4985275;28;20177;-79
2023/12/01 02:20:05;;;;;;;88.95;32.40;;;;;;;;;;4984108;28;20177;-79
2023/12/01 02:22:31;;;;;;;79.22;32.83;;;;;;;;;;4984362;28;20536;-79
2023/12/01 02:24:57;;;;;;;89.22;31.30;;;;;;;;;;4984257;28;20231;-79
2023/12/01 02:27:23;;;;;;;79.32;31.98;;;;;;;;;;4985135;28;20556;-79
2023/12/01 02:29:49;;;;;;;78.90;31.15;;;;;;;;;;4984644;28;20175;-79
2023/12/01 02:32:15;;;;;;;83.22;32.40;;;;;;;;;;4984646;28;20164;-79
2023/12/01 02:34:45;;;;;;;88.57;33.65;;;;;;;;;;4984986;28;20176;-79
2023/12/01 02:37:11;;;;;;;84.30;30.95;;;;;;;;;;4984718;28;20618;-79
2023/12/01 02:39:37;;;;;;;84.50;31.53;;;;;;;;;;4984341;28;20181;-79
2023/12/01 02:42:03;;;;;;;85.78;33.30;;;;;;;;;;4983523;28;20415;-79
2023/12/01 02:44:29;;;;;;;88.78;32.78;;;;;;;;;;4984259;28;20225;-79
2023/12/01 02:46:55;;;;;;;91.27;36.60;;;;;;;;;;4983922;28;20254;-79
2023/12/01 02:49:24;;;;;;;66.20;30.90;;;;;;;;;;4984175;28;20411;-79
2023/12/01 02:51:50;;;;;;;75.78;30.33;;;;;;;;;;4983669;28;20471;-79
2023/12/01 02:54:16;;;;;;;73.40;29.17;;;;;;;;;;4984210;28;20220;-79
2023/12/01 02:56:42;;;;;;;70.15;30.13;;;;;;;;;;4983748;28;20416;-79
2023/12/01 02:59:08;;;;;;;73.67;29.67;;;;;;;;;;4983396;28;20180;-79
2023/12/01 03:01:34;;;;;;;70.27;28.80;;;;;;;;;;4984210;28;20404;-78
2023/12/01 03:04:00;;;;;;;70.45;30.83;;;;;;;;;;4984168;28;20903;-79
2023/12/01 03:06:25;;;;;;;69.37;30.03;;;;;;;;;;4984183;28;20204;-79
2023/12/01 03:08:51;;;;;;;55.00;26.85;;;;;;;;;;4982667;28;20420;-79
2023/12/01 03:11:22;;;;;;;63.67;30.30;;;;;;;;;;4983487;28;20200;-78
2023/12/01 03:13:48;;;;;;;64.00;31.63;;;;;;;;;;4984085;28;20814;-79
2023/12/01 03:16:14;;;;;;;62.78;28.08;;;;;;;;;;4983466;28;20187;-79
2023/12/01 03:18:40;;;;;;;62.20;29.90;;;;;;;;;;4983341;28;20554;-79
2023/12/01 03:21:12;;;;;;;58.88;29.63;;;;;;;;;;4983137;28;20414;-79
2023/12/01 03:23:38;;;;;;;64.55;33.10;;;;;;;;;;4983491;28;20665;-78
2023/12/01 03:26:05;;;;;;;67.30;30.27;;;;;;;;;;4982807;28;20209;-79
2023/12/01 03:28:31;;;;;;;65.40;29.60;;;;;;;;;;4982857;28;20232;-79
2023/12/01 03:30:57;;;;;;;58.47;26.48;;;;;;;;;;4983230;28;20177;-78
2023/12/01 03:33:23;;;;;;;59.53;28.73;;;;;;;;;;4983125;28;20719;-79
2023/12/01 03:35:49;;;;;;;65.20;30.00;;;;;;;;;;4983444;28;20200;-80
2023/12/01 03:38:15;;;;;;;58.87;28.63;;;;;;;;;;4983120;28;20419;-79
2023/12/01 03:40:41;;;;;;;61.37;29.00;;;;;;;;;;4983268;28;20443;-79
2023/12/01 03:43:07;;;;;;;57.13;28.58;;;;;;;;;;4983340;28;20403;-79
2023/12/01 03:45:33;;;;;;;59.35;29.60;;;;;;;;;;4983532;28;20216;-79
2023/12/01 03:47:59;;;;;;;65.03;31.60;;;;;;;;;;4982924;28;20539;-79
2023/12/01 03:50:25;;;;;;;55.40;27.80;;;;;;;;;;4982353;28;20466;-79
2023/12/01 03:52:51;;;;;;;62.67;32.13;;;;;;;;;;4983100;28;20405;-79
2023/12/01 03:55:17;;;;;;;54.15;28.80;;;;;;;;;;4982590;28;20172;-79
2023/12/01 03:57:44;;;;;;;54.58;28.10;;;;;;;;;;4982860;28;20199;-79
2023/12/01 04:00:16;;;;;;;53.45;29.20;;;;;;;;;;4982376;28;21224;-78
2023/12/01 04:02:43;;;;;;;54.42;31.02;;;;;;;;;;4982961;28;20244;-78
2023/12/01 04:05:16;;;;;;;57.60;29.05;;;;;;;;;;4982306;28;20184;-78
2023/12/01 04:07:44;;;;;;;55.10;28.50;;;;;;;;;;4982554;28;20180;-78
2023/12/01 04:10:10;;;;;;;50.95;28.00;;;;;;;;;;4982663;28;20285;-78
2023/12/01 04:12:39;;;;;;;62.58;30.50;;;;;;;;;;4982311;28;20224;-78
2023/12/01 04:15:05;;;;;;;58.97;31.13;;;;;;;;;;4982227;28;20255;-78
2023/12/01 04:17:32;;;;;;;52.60;28.20;;;;;;;;;;4982282;28;20181;-78
2023/12/01 04:19:58;;;;;;;58.33;29.42;;;;;;;;;;4982330;28;20195;-79
2023/12/01 04:22:25;;;;;;;58.37;29.50;;;;;;;;;;4982083;28;20182;-78
2023/12/01 04:24:51;;;;;;;46.50;25.30;;;;;;;;;;4981946;28;20431;-78
2023/12/01 04:27:17;;;;;;;56.85;27.02;;;;;;;;;;4981524;28;20231;-78
2023/12/01 04:29:43;;;;;;;51.03;26.60;;;;;;;;;;4982186;28;20181;-78
2023/12/01 04:32:09;;;;;;;52.67;26.40;;;;;;;;;;4981647;28;20494;-78
2023/12/01 04:34:35;;;;;;;56.42;28.60;;;;;;;;;;4981698;28;20434;-78
2023/12/01 04:37:08;;;;;;;48.75;26.60;;;;;;;;;;4981032;28;20179;-78
2023/12/01 04:39:34;;;;;;;51.38;25.38;;;;;;;;;;4981779;28;20187;-78
2023/12/01 04:42:00;;;;;;;41.00;24.07;;;;;;;;;;4982144;28;20176;-78
2023/12/01 04:44:25;;;;;;;45.93;22.07;;;;;;;;;;4981681;28;20410;-78
2023/12/01 04:46:51;;;;;;;45.27;22.53;;;;;;;;;;4980268;28;20479;-78
2023/12/01 04:49:17;;;;;;;48.87;25.57;;;;;;;;;;4981791;28;20403;-78
2023/12/01 04:51:43;;;;;;;54.70;26.63;;;;;;;;;;4981422;28;20422;-78
2023/12/01 04:54:09;;;;;;;43.47;23.57;;;;;;;;;;4981213;28;20280;-78
2023/12/01 04:56:35;;;;;;;45.67;23.57;;;;;;;;;;4981109;28;20411;-78
2023/12/01 04:59:01;;;;;;;41.90;23.52;;;;;;;;;;4981102;28;20870;-78
2023/12/01 05:01:27;;;;;;;38.40;22.90;;;;;;;;;;4981674;28;20215;-78
2023/12/01 05:03:53;;;;;;;47.28;25.73;;;;;;;;;;4981954;28;20175;-78
2023/12/01 05:06:19;;;;;;;52.80;24.80;;;;;;;;;;4981415;28;20210;-78
2023/12/01 05:08:45;;;;;;;44.90;24.97;;;;;;;;;;4981020;28;20212;-78
2023/12/01 05:11:11;;;;;;;47.53;23.38;;;;;;;;;;4981182;28;20752;-77
2023/12/01 05:13:37;;;;;;;48.60;26.97;;;;;;;;;;4981420;28;20172;-77
2023/12/01 05:16:04;;;;;;;39.80;23.38;;;;;;;;;;4980708;28;20926;-77
2023/12/01 05:18:30;;;;;;;43.88;22.98;;;;;;;;;;4981189;28;20267;-78
2023/12/01 05:20:56;;;;;;;42.20;23.77;;;;;;;;;;4980882;28;20667;-78
2023/12/01 05:23:22;;;;;;;48.30;23.93;;;;;;;;;;4981190;28;20411;-78
2023/12/01 05:25:50;;;;;;;42.00;24.20;;;;;;;;;;4980580;28;20565;-77
2023/12/01 05:28:17;;;;;;;45.28;23.58;;;;;;;;;;4980810;28;20240;-78
2023/12/01 05:30:45;;;;;;;42.15;22.40;;;;;;;;;;4980305;28;20212;-78
2023/12/01 05:33:11;;;;;;;43.00;24.67;;;;;;;;;;4980595;28;20201;-77
2023/12/01 05:35:38;;;;;;;42.08;23.27;;;;;;;;;;4980830;28;20176;-78
2023/12/01 05:38:04;;;;;;;40.65;21.75;;;;;;;;;;4980484;28;20176;-78
2023/12/01 05:40:34;;;;;;;40.33;22.27;;;;;;;;;;4981044;28;20274;-77
2023/12/01 05:43:00;;;;;;;40.65;22.02;;;;;;;;;;4979784;28;20259;-78
2023/12/01 05:45:27;;;;;;;46.77;24.70;;;;;;;;;;4980740;28;20235;-78
2023/12/01 05:47:53;;;;;;;42.40;25.08;;;;;;;;;;4980857;28;20404;-77
2023/12/01 05:50:25;;;;;;;44.00;23.70;;;;;;;;;;4982222;28;20659;-77
2023/12/01 05:52:52;;;;;;;47.83;23.08;;;;;;;;;;4984936;28;20175;-77
2023/12/01 05:55:19;;;;;;;49.20;24.20;;;;;;;;;;4984037;28;20182;-77
2023/12/01 05:57:49;;;;;;;43.35;23.88;;;;;;;;;;4984586;28;20254;-77
2023/12/01 06:00:29;;;;;;;37.88;21.95;;;;;;;;;;4984443;28;20172;-78
2023/12/01 06:02:55;;;;;;;42.97;22.60;;;;;;;;;;4984666;28;20172;-77
2023/12/01 06:05:21;;;;;;;46.40;22.98;;;;;;;;;;4984087;28;20552;-78
2023/12/01 06:07:52;;;;;;;40.55;21.55;;;;;;;;;;4985188;28;20250;-77
2023/12/01 06:10:18;;;;;;;39.88;21.88;;;;;;;;;;4984670;28;20188;-77
2023/12/01 06:12:45;;;;;;;45.10;22.42;;;;;;;;;;4984212;28;20176;-78
2023/12/01 06:15:13;;;;;;;33.85;20.70;;;;;;;;;;4983998;28;20172;-77
2023/12/01 06:17:39;;;;;;;39.55;20.80;;;;;;;;;;4984570;28;20204;-78
2023/12/01 06:20:16;;;;;;;46.65;23.70;;;;;;;;;;4984242;28;20180;-77
2023/12/01 06:22:43;;;;;;;48.95;24.10;;;;;;;;;;4984603;28;20496;-78
2023/12/01 06:25:09;;;;;;;46.05;23.90;;;;;;;;;;4983996;28;20264;-78
2023/12/01 06:27:36;;;;;;;39.30;22.40;;;;;;;;;;4983883;28;20252;-77
2023/12/01 06:30:03;;;;;;;45.40;24.60;;;;;;;;;;4984063;28;20447;-78
2023/12/01 06:32:29;;;;;;;42.17;23.88;;;;;;;;;;4984484;28;20184;-77
2023/12/01 06:34:54;;;;;;;48.47;24.10;;;;;;;;;;4984745;28;20223;-77
2023/12/01 06:37:20;;;;;;;45.30;25.57;;;;;;;;;;4983913;28;20426;-77
2023/12/01 06:39:46;;;;;;;45.70;25.33;;;;;;;;;;4984523;28;20408;-77
2023/12/01 06:42:12;;;;;;;43.30;23.80;;;;;;;;;;4984142;28;20181;-79
2023/12/01 06:44:38;;;;;;;37.65;21.27;;;;;;;;;;4982763;28;21011;-80
2023/12/01 06:47:04;;;;;;;40.80;22.93;;;;;;;;;;4982366;28;20208;-80
2023/12/01 06:49:30;;;;;;;37.63;20.33;;;;;;;;;;4982142;28;20393;-80
2023/12/01 06:51:59;;;;;;;38.17;21.77;;;;;;;;;;4981230;28;20177;-80
2023/12/01 06:54:27;;;;;;;41.72;22.42;;;;;;;;;;4982560;28;20172;-80
2023/12/01 06:56:53;;;;;;;41.25;21.95;;;;;;;;;;4982918;28;20169;-80
2023/12/01 06:59:21;;;;;;;44.63;21.57;;;;;;;;;;5013444;28;20184;-80
2023/12/01 07:01:47;;;;;;;36.90;21.73;;;;;;;;;;4981844;28;20810;-82
2023/12/01 07:04:14;;;;;;;38.78;21.92;;;;;;;;;;4980537;28;20188;-80
2023/12/01 07:06:46;;;;;;;42.70;22.92;;;;;;;;;;4981858;28;20208;-80
2023/12/01 07:09:17;;;;;;;42.60;21.40;;;;;;;;;;4982405;28;20171;-80
2023/12/01 07:11:43;;;;;;;37.88;21.23;;;;;;;;;;4982974;28;20157;-80
2023/12/01 07:14:12;;;;;;;43.05;23.10;;;;;;;;;;4982527;28;20591;-81
2023/12/01 07:16:38;;;;;;;34.97;20.65;;;;;;;;;;4982033;28;20275;-80
2023/12/01 07:19:04;;;;;;;36.83;20.97;;;;;;;;;;4982061;28;20211;-81
2023/12/01 07:21:30;;;;;;;39.57;22.80;;;;;;;;;;4982269;28;20424;-80
2023/12/01 07:23:56;;;;;;;36.03;20.90;;;;;;;;;;4982272;28;20414;-80
2023/12/01 07:26:27;;;;;;;36.13;19.92;;;;;;;;;;4980393;28;20230;-80
2023/12/01 07:28:53;;;;;;;38.15;20.33;;;;;;;;;;4981724;28;20168;-80
2023/12/01 07:31:19;;;;;;;34.60;19.20;;;;;;;;;;4981455;28;20176;-80
2023/12/01 07:33:45;;;;;;;34.83;21.30;;;;;;;;;;5013030;28;20418;-80
2023/12/01 07:36:11;;;;;;;30.55;18.55;;;;;;;;;;4980935;28;20258;-80
2023/12/01 07:38:37;;;;;;;36.00;18.77;;;;;;;;;;4982189;28;20181;-82
2023/12/01 07:41:03;;;;;;;35.00;19.75;;;;;;;;;;4981067;28;20239;-80
2023/12/01 07:43:29;;;;;;;34.85;20.52;;;;;;;;;;4982138;28;20177;-80
2023/12/01 07:45:55;;;;;;;33.90;19.63;;;;;;;;;;4981406;28;20228;-80
2023/12/01 07:48:22;;;;;;;32.42;20.15;;;;;;;;;;5012482;28;20410;-80
2023/12/01 07:50:47;;;;;;;33.58;19.05;;;;;;;;;;4981737;28;20245;-79
2023/12/01 07:53:13;;;;;;;34.37;18.73;;;;;;;;;;4981292;28;20176;-80
2023/12/01 07:55:43;;;;;;;31.90;18.63;;;;;;;;;;4980875;28;20415;-80
2023/12/01 07:58:09;;;;;;;31.90;16.88;;;;;;;;;;4981044;28;20758;-80
2023/12/01 08:00:40;;;;;;;31.37;17.00;;;;;;;;;;4981390;28;20264;-80
2023/12/01 08:03:06;;;;;;;29.10;16.25;;;;;;;;;;4980726;28;20503;-80
2023/12/01 08:05:32;;;;;;;27.20;15.90;;;;;;;;;;4981495;28;20268;-80
2023/12/01 08:07:58;;;;;;;31.27;16.80;;;;;;;;;;4981682;28;20580;-79
2023/12/01 08:10:25;;;;;;;27.37;15.53;;;;;;;;;;5012416;28;20178;-80
2023/12/01 08:12:56;;;;;;;27.55;15.25;;;;;;;;;;4980126;28;20550;-80
2023/12/01 08:15:22;;;;;;;26.90;17.10;;;;;;;;;;4980966;28;20179;-80
2023/12/01 08:17:48;;;;;;;26.10;15.63;;;;;;;;;;4979961;28;20176;-80
2023/12/01 08:20:18;;;;;;;21.95;13.48;;;;;;;;;;4980472;28;20173;-80
2023/12/01 08:22:46;;;;;;;30.00;17.48;;;;;;;;;;4980846;28;20173;-80
2023/12/01 08:25:15;;;;;;;27.15;14.52;;;;;;;;;;5011516;28;20196;-80
2023/12/01 08:27:41;;;;;;;22.33;12.50;;;;;;;;;;4980170;28;20226;-80
2023/12/01 08:30:08;;;;;;;25.08;13.68;;;;;;;;;;4980534;28;20169;-81
2023/12/01 08:32:34;;;;;;;20.33;12.88;;;;;;;;;;4979992;28;20212;-80
2023/12/01 08:35:00;;;;;;;25.33;12.05;;;;;;;;;;4980999;28;20523;-79
2023/12/01 08:37:26;;;;;;;16.70;10.98;;;;;;;;;;4980135;28;20172;-80
2023/12/01 08:39:52;;;;;;;19.27;11.30;;;;;;;;;;4980376;28;20277;-79
2023/12/01 08:42:19;;;;;;;18.33;10.10;;;;;;;;;;4980285;28;20735;-80
2023/12/01 08:44:45;;;;;;;17.05;10.65;;;;;;;;;;4980554;28;20452;-80
2023/12/01 08:47:13;;;;;;;16.63;10.43;;;;;;;;;;4980697;28;20200;-80
2023/12/01 08:49:39;;;;;;;17.60;11.10;;;;;;;;;;4979007;28;20181;-79
2023/12/01 08:52:07;;;;;;;17.52;10.95;;;;;;;;;;5011861;28;20177;-79
2023/12/01 08:54:33;;;;;;;15.70;8.98;;;;;;;;;;4980481;28;20560;-79
2023/12/01 08:56:59;;;;;;;12.30;7.95;;;;;;;;;;4980930;28;20581;-79
2023/12/01 08:59:25;;;;;;;16.83;11.00;;;;;;;;;;4980399;28;20208;-81
2023/12/01 09:01:51;;;;;;;15.50;9.43;;;;;;;;;;4980780;28;20404;-82
2023/12/01 09:04:17;;;;;;;12.75;8.30;;;;;;;;;;4979563;28;20181;-82
2023/12/01 09:06:43;;;;;;;15.35;10.02;;;;;;;;;;4995093;28;20214;-82
2023/12/01 09:09:09;;;;;;;14.93;9.77;;;;;;;;;;4980378;28;20712;-82
2023/12/01 09:11:35;;;;;;;15.85;9.35;;;;;;;;;;4980208;28;20810;-83
2023/12/01 09:14:01;;;;;;;15.10;9.73;;;;;;;;;;5011378;28;20228;-82
2023/12/01 09:16:27;;;;;;;14.00;9.03;;;;;;;;;;4979899;28;20440;-82
2023/12/01 09:18:53;;;;;;;15.85;9.90;;;;;;;;;;4979870;28;20434;-82
2023/12/01 09:21:19;;;;;;;14.60;9.20;;;;;;;;;;4979334;28;20534;-82
2023/12/01 09:23:45;;;;;;;13.20;9.57;;;;;;;;;;4979401;28;20456;-81
2023/12/01 09:26:17;;;;;;;13.63;8.50;;;;;;;;;;4983588;28;20671;-83
2023/12/01 09:28:43;;;;;;;16.60;9.25;;;;;;;;;;4980141;28;20961;-81
2023/12/01 09:31:12;;;;;;;11.68;8.10;;;;;;;;;;4978337;28;20184;-82
2023/12/01 09:33:38;;;;;;;15.05;8.77;;;;;;;;;;4980164;28;20525;-82
2023/12/01 09:36:05;;;;;;;14.15;7.95;;;;;;;;;;5011812;28;20186;-81
2023/12/01 09:38:31;;;;;;;10.95;7.65;;;;;;;;;;4979081;28;20186;-81
2023/12/01 09:40:57;;;;;;;10.95;7.10;;;;;;;;;;4979627;28;20175;-81
2023/12/01 09:43:23;;;;;;;13.98;6.90;;;;;;;;;;4979824;28;20284;-81
2023/12/01 09:45:50;;;;;;;12.55;6.65;;;;;;;;;;4979515;28;20217;-80
2023/12/01 09:48:18;;;;;;;11.23;7.40;;;;;;;;;;4977999;28;20207;-81
2023/12/01 09:50:44;;;;;;;10.55;7.70;;;;;;;;;;4978170;28;20182;-81
2023/12/01 09:53:11;;;;;;;12.20;7.40;;;;;;;;;;4979660;28;20179;-81
2023/12/01 09:55:37;;;;;;;12.63;8.13;;;;;;;;;;4979708;28;20404;-81
2023/12/01 09:58:03;;;;;;;11.35;7.20;;;;;;;;;;4980281;28;20256;-81
2023/12/01 10:00:29;;;;;;;9.85;7.05;;;;;;;;;;4980069;28;20176;-81
2023/12/01 10:02:55;;;;;;;12.80;8.80;;;;;;;;;;4979797;28;20509;-81
2023/12/01 10:05:21;;;;;;;14.43;8.32;;;;;;;;;;4979268;28;20414;-81
2023/12/01 10:07:50;;;;;;;14.55;8.38;;;;;;;;;;5010654;28;20246;-81
2023/12/01 10:10:24;;;;;;;12.23;7.65;;;;;;;;;;4979327;28;20548;-81
2023/12/01 10:12:57;;;;;;;11.90;7.88;;;;;;;;;;4979500;28;20184;-81
2023/12/01 10:15:24;;;;;;;11.75;7.43;;;;;;;;;;4977977;28;20169;-82
2023/12/01 10:17:50;;;;;;;12.57;7.28;;;;;;;;;;4978805;28;20191;-81
2023/12/01 10:20:20;;;;;;;11.93;6.40;;;;;;;;;;4978469;28;20232;-81
2023/12/01 10:22:46;;;;;;;8.90;6.05;;;;;;;;;;5008774;28;20208;-81
2023/12/01 10:25:13;;;;;;;10.93;6.63;;;;;;;;;;4978309;28;20181;-80
2023/12/01 10:27:42;;;;;;;10.10;6.15;;;;;;;;;;4978195;28;20225;-81
2023/12/01 10:30:12;;;;;;;11.73;7.00;;;;;;;;;;4978413;28;20216;-80
2023/12/01 10:32:38;;;;;;;8.60;6.03;;;;;;;;;;4978623;28;20536;-80
2023/12/01 10:35:05;;;;;;;7.00;5.60;;;;;;;;;;5010197;28;20236;-80
2023/12/01 10:37:31;;;;;;;8.93;5.50;;;;;;;;;;4980587;28;20431;-81
2023/12/01 10:39:58;;;;;;;10.73;6.20;;;;;;;;;;4981700;28;20190;-80
2023/12/01 10:42:24;;;;;;;6.93;5.10;;;;;;;;;;4982294;28;20194;-81
2023/12/01 10:44:50;;;;;;;7.45;4.82;;;;;;;;;;4982509;28;20175;-81
2023/12/01 10:47:17;;;;;;;7.72;5.43;;;;;;;;;;4981821;28;20685;-81
2023/12/01 10:49:44;;;;;;;9.73;6.43;;;;;;;;;;4982689;28;20165;-81
2023/12/01 10:52:13;;;;;;;8.80;5.85;;;;;;;;;;4980516;28;20187;-80
2023/12/01 10:54:43;;;;;;;8.85;5.53;;;;;;;;;;4982418;28;20176;-81
2023/12/01 10:57:09;;;;;;;10.98;6.95;;;;;;;;;;4981279;28;20701;-81
2023/12/01 10:59:37;;;;;;;9.80;5.97;;;;;;;;;;4981417;28;20180;-81
2023/12/01 11:02:04;;;;;;;9.30;5.47;;;;;;;;;;4982045;28;20410;-81
2023/12/01 11:04:32;;;;;;;12.32;7.60;;;;;;;;;;4981938;28;20179;-81
2023/12/01 11:07:15;;;;;;;11.95;6.22;;;;;;;;;;4982321;28;20224;-80
2023/12/01 11:09:56;;;;;;;9.15;5.65;;;;;;;;;;4981445;28;20180;-81
2023/12/01 11:12:31;;;;;;;13.70;6.53;;;;;;;;;;4981712;28;20176;-81
2023/12/01 11:15:06;;;;;;;13.27;8.82;;;;;;;;;;4982141;28;20225;-81
2023/12/01 11:17:33;;;;;;;13.15;7.15;;;;;;;;;;4981665;28;20204;-82
2023/12/01 11:19:59;;;;;;;10.90;7.95;;;;;;;;;;4982676;28;20172;-81
2023/12/01 11:22:27;;;;;;;10.80;7.30;;;;;;;;;;4981892;28;20566;-82
2023/12/01 11:24:53;;;;;;;14.95;7.40;;;;;;;;;;4980246;28;20417;-81
2023/12/01 11:27:19;;;;;;;16.20;8.65;;;;;;;;;;4981117;28;20260;-82
2023/12/01 11:30:11;;;;;;;12.63;7.40;;;;;;;;;;4981624;28;20273;-82
2023/12/01 11:32:40;;;;;;;16.05;7.53;;;;;;;;;;4981597;28;20269;-81
2023/12/01 11:35:08;;;;;;;11.27;7.85;;;;;;;;;;4982370;28;20164;-81
2023/12/01 11:37:53;;;;;;;11.50;7.43;;;;;;;;;;4981664;28;20182;-81
2023/12/01 11:40:22;;;;;;;9.63;6.72;;;;;;;;;;4986494;28;20182;-79
2023/12/01 11:42:51;;;;;;;10.77;7.13;;;;;;;;;;4984432;28;20260;-81
2023/12/01 11:45:35;;;;;;;12.18;7.07;;;;;;;;;;4981840;28;20180;-80
2023/12/01 11:48:02;;;;;;;12.07;7.25;;;;;;;;;;4982027;28;20169;-80
2023/12/01 11:50:29;;;;;;;12.10;7.88;;;;;;;;;;4982064;28;20229;-80
2023/12/01 11:52:55;;;;;;;11.23;7.80;;;;;;;;;;4982050;28;20179;-81
2023/12/01 11:55:21;;;;;;;10.13;7.35;;;;;;;;;;4981444;28;20501;-82
2023/12/01 11:57:53;;;;;;;12.43;8.25;;;;;;;;;;4980902;28;20597;-81
2023/12/01 12:00:19;;;;;;;16.10;9.43;;;;;;;;;;4979907;28;20242;-85
2023/12/01 12:02:46;;;;;;;11.85;7.93;;;;;;;;;;4981186;28;20257;-82
2023/12/01 12:05:12;;;;;;;8.80;6.80;;;;;;;;;;4980615;28;20245;-82
2023/12/01 12:07:38;;;;;;;10.63;7.15;;;;;;;;;;4980727;28;20543;-82
2023/12/01 12:10:08;;;;;;;10.43;6.75;;;;;;;;;;4981349;28;20182;-81
2023/12/01 12:12:34;;;;;;;9.38;6.25;;;;;;;;;;4980633;28;20185;-82
2023/12/01 12:15:10;;;;;;;12.20;7.35;;;;;;;;;;4980420;28;20694;-82
2023/12/01 12:17:40;;;;;;;9.68;7.47;;;;;;;;;;4980765;28;20181;-82
2023/12/01 12:20:09;;;;;;;12.77;7.82;;;;;;;;;;4980512;28;20167;-81
2023/12/01 12:22:35;;;;;;;16.67;10.25;;;;;;;;;;4980719;28;20166;-81
2023/12/01 12:25:01;;;;;;;23.05;11.95;;;;;;;;;;4981075;28;20214;-81
2023/12/01 12:27:36;;;;;;;31.47;13.53;;;;;;;;;;4979796;28;20237;-82
2023/12/01 12:30:03;;;;;;;15.15;8.57;;;;;;;;;;4979893;28;20410;-82
2023/12/01 12:32:29;;;;;;;9.25;6.93;;;;;;;;;;4979248;28;20185;-82
2023/12/01 12:34:55;;;;;;;11.53;8.13;;;;;;;;;;4980074;28;20176;-82
2023/12/01 12:37:22;;;;;;;14.17;9.60;;;;;;;;;;4979116;28;20502;-81
2023/12/01 12:39:51;;;;;;;14.70;8.75;;;;;;;;;;4979133;28;20438;-82
2023/12/01 12:42:17;;;;;;;11.30;8.30;;;;;;;;;;4979881;28;20165;-82
2023/12/01 12:44:46;;;;;;;14.75;9.50;;;;;;;;;;4979848;28;20571;-82
2023/12/01 12:47:12;;;;;;;14.43;8.73;;;;;;;;;;4979802;28;20213;-82
2023/12/01 12:49:37;;;;;;;10.90;7.37;;;;;;;;;;4979341;28;20182;-82
2023/12/01 12:52:04;;;;;;;13.53;7.53;;;;;;;;;;4979520;28;20490;-82
2023/12/01 12:54:30;;;;;;;12.32;7.78;;;;;;;;;;4977755;28;20420;-82
2023/12/01 12:56:56;;;;;;;10.27;6.93;;;;;;;;;;4978134;28;20182;-82
2023/12/01 12:59:23;;;;;;;9.75;7.22;;;;;;;;;;4977712;28;20625;-81
2023/12/01 13:01:49;;;;;;;9.82;6.80;;;;;;;;;;4978127;28;20267;-82
2023/12/01 13:04:15;;;;;;;11.93;7.72;;;;;;;;;;4979170;28;20175;-82
2023/12/01 13:06:41;;;;;;;9.20;6.57;;;;;;;;;;4979373;28;20242;-81
2023/12/01 13:09:07;;;;;;;10.77;6.33;;;;;;;;;;4979921;28;20902;-82
2023/12/01 13:11:33;;;;;;;9.95;5.95;;;;;;;;;;4977982;28;20406;-81
2023/12/01 13:13:59;;;;;;;10.90;6.60;;;;;;;;;;4978797;28;20269;-81
2023/12/01 13:16:25;;;;;;;8.48;6.60;;;;;;;;;;4979492;28;20213;-82
2023/12/01 13:18:51;;;;;;;7.10;4.97;;;;;;;;;;4979547;28;20170;-81
2023/12/01 13:21:17;;;;;;;8.87;6.10;;;;;;;;;;4979129;28;20185;-81
2023/12/01 13:23:43;;;;;;;11.30;6.63;;;;;;;;;;4979594;28;20808;-82
2023/12/01 13:26:08;;;;;;;16.60;10.40;;;;;;;;;;4979709;28;20560;-81
2023/12/01 13:28:34;;;;;;;17.88;8.52;;;;;;;;;;4979031;28;20708;-82
2023/12/01 13:31:01;;;;;;;13.97;7.70;;;;;;;;;;4979319;28;20184;-81
2023/12/01 13:33:27;;;;;;;11.75;7.97;;;;;;;;;;4979184;28;20446;-82
2023/12/01 13:35:53;;;;;;;15.20;11.53;;;;;;;;;;4979583;28;20185;-81
2023/12/01 13:38:19;;;;;;;15.75;9.52;;;;;;;;;;4979794;28;20448;-81
2023/12/01 13:40:45;;;;;;;9.45;7.40;;;;;;;;;;4979349;28;20181;-81
2023/12/01 13:43:11;;;;;;;9.43;8.00;;;;;;;;;;4979349;28;20172;-81
2023/12/01 13:45:37;;;;;;;16.05;9.25;;;;;;;;;;4978456;28;20651;-81
2023/12/01 13:48:04;;;;;;;12.18;8.90;;;;;;;;;;4979288;28;20520;-81
2023/12/01 13:50:30;;;;;;;12.85;9.05;;;;;;;;;;4978336;28;20171;-81
2023/12/01 13:52:56;;;;;;;14.95;9.38;;;;;;;;;;4978799;28;20240;-81
2023/12/01 13:55:23;;;;;;;11.95;8.32;;;;;;;;;;4977578;28;20204;-81
2023/12/01 13:57:50;;;;;;;11.20;8.10;;;;;;;;;;4977820;28;20176;-81
2023/12/01 14:00:17;;;;;;;15.07;9.15;;;;;;;;;;4978199;28;20196;-81
2023/12/01 14:02:43;;;;;;;12.80;9.88;;;;;;;;;;4980148;28;20178;-81
2023/12/01 14:05:09;;;;;;;15.40;10.10;;;;;;;;;;4997636;28;20176;-80
2023/12/01 14:07:36;;;;;;;11.68;8.85;;;;;;;;;;4997595;28;20217;-81
2023/12/01 14:10:03;;;;;;;11.95;8.25;;;;;;;;;;4998859;28;20169;-81
2023/12/01 14:12:29;;;;;;;11.40;8.10;;;;;;;;;;5016267;28;20175;-82
2023/12/01 14:14:55;;;;;;;11.18;7.65;;;;;;;;;;5001790;28;20244;-81
2023/12/01 14:17:21;;;;;;;14.83;7.87;;;;;;;;;;5002898;28;20176;-81
2023/12/01 14:19:46;;;;;;;17.37;9.20;;;;;;;;;;5002010;28;20420;-81
2023/12/01 14:22:13;;;;;;;12.90;8.10;;;;;;;;;;5017135;28;20419;-82